Time;durP1;ratioP1;P1;durP2;ratioP2;P2;SDS_P1;SDS_P2;PMS_P1;PMS_P2;Temp;Humidity;BMP_temperature;BMP_pressure;BME280_temperature;BME280_humidity;BME280_pressure;Samples;Min_cycle;Max_cycle;Signal;HPM_P1;HPM_P2
2022/09/21 00:00:05;;;;;;;6.97;5.10;;;;;;;;;;4975596;28;20050;-65
2022/09/21 00:02:32;;;;;;;6.32;5.50;;;;;;;;;;4975738;28;20066;-65
2022/09/21 00:04:58;;;;;;;6.00;5.38;;;;;;;;;;4975572;28;20055;-65
2022/09/21 00:07:25;;;;;;;8.07;5.78;;;;;;;;;;4975245;28;20065;-65
2022/09/21 00:09:51;;;;;;;5.50;5.00;;;;;;;;;;4975603;28;20050;-65
2022/09/21 00:12:18;;;;;;;5.63;4.72;;;;;;;;;;4975494;28;20105;-65
2022/09/21 00:14:45;;;;;;;;;;;;;;;;;;4975879;28;20065;-65
2022/09/21 00:17:11;;;;;;;6.20;5.38;;;;;;;;;;4975042;28;20400;-65
2022/09/21 00:19:37;;;;;;;6.00;4.97;;;;;;;;;;4975120;28;20487;-65
2022/09/21 00:22:04;;;;;;;6.65;5.95;;;;;;;;;;4974509;28;20054;-65
2022/09/21 00:24:30;;;;;;;7.35;5.43;;;;;;;;;;4974979;28;20046;-65
2022/09/21 00:26:57;;;;;;;6.43;4.88;;;;;;;;;;4974824;28;20054;-65
2022/09/21 00:29:23;;;;;;;6.28;5.68;;;;;;;;;;4974901;28;20059;-66
2022/09/21 00:31:49;;;;;;;7.63;5.50;;;;;;;;;;4975202;28;20055;-65
2022/09/21 00:34:16;;;;;;;6.85;5.95;;;;;;;;;;4975170;28;20134;-65
2022/09/21 00:36:42;;;;;;;7.50;5.03;;;;;;;;;;4974698;28;20051;-65
2022/09/21 00:39:09;;;;;;;8.57;5.10;;;;;;;;;;4974722;28;20050;-65
2022/09/21 00:41:35;;;;;;;6.57;5.22;;;;;;;;;;4974645;28;20498;-65
2022/09/21 00:44:20;;;;;;;6.22;5.22;;;;;;;;;;4974600;28;20054;-65
2022/09/21 00:46:48;;;;;;;6.13;5.38;;;;;;;;;;4974913;28;20054;-65
2022/09/21 00:49:14;;;;;;;;;;;;;;;;;;4974910;28;20051;-65
2022/09/21 00:51:41;;;;;;;5.90;4.80;;;;;;;;;;4974550;28;20366;-65
2022/09/21 00:54:11;;;;;;;5.80;5.07;;;;;;;;;;4974709;28;20062;-65
2022/09/21 00:56:38;;;;;;;6.80;4.63;;;;;;;;;;4974834;28;20104;-65
2022/09/21 00:59:04;;;;;;;7.07;5.32;;;;;;;;;;4974496;28;20050;-65
2022/09/21 01:01:31;;;;;;;6.97;5.30;;;;;;;;;;4974487;28;20150;-65
2022/09/21 01:03:57;;;;;;;5.97;5.38;;;;;;;;;;4974197;28;20058;-65
2022/09/21 01:06:24;;;;;;;6.90;5.53;;;;;;;;;;4974210;28;20057;-65
2022/09/21 01:08:53;;;;;;;7.67;5.47;;;;;;;;;;4973968;28;20059;-65
2022/09/21 01:11:27;;;;;;;5.90;5.35;;;;;;;;;;4974453;28;20486;-65
2022/09/21 01:13:56;;;;;;;5.63;4.68;;;;;;;;;;4974051;28;20046;-65
2022/09/21 01:16:27;;;;;;;6.40;5.80;;;;;;;;;;4974115;28;20054;-65
2022/09/21 01:19:00;;;;;;;6.65;5.13;;;;;;;;;;4973956;28;20042;-65
2022/09/21 01:21:31;;;;;;;8.23;6.50;;;;;;;;;;4973914;28;20054;-65
2022/09/21 01:24:01;;;;;;;7.35;6.65;;;;;;;;;;4974078;28;20047;-65
2022/09/21 01:26:31;;;;;;;7.47;6.10;;;;;;;;;;4974191;28;20061;-65
2022/09/21 01:29:00;;;;;;;6.95;5.68;;;;;;;;;;4973866;28;20077;-65
2022/09/21 01:31:31;;;;;;;5.57;5.03;;;;;;;;;;4972436;28;20403;-65
2022/09/21 01:34:01;;;;;;;6.28;5.68;;;;;;;;;;4973663;28;20059;-65
2022/09/21 01:36:29;;;;;;;6.65;5.25;;;;;;;;;;4973613;28;20483;-65
2022/09/21 01:39:02;;;;;;;7.43;5.30;;;;;;;;;;4972387;28;20050;-65
2022/09/21 01:41:30;;;;;;;6.38;4.82;;;;;;;;;;4973873;28;20061;-65
2022/09/21 01:44:08;;;;;;;6.80;5.20;;;;;;;;;;4973508;28;20401;-65
2022/09/21 01:46:36;;;;;;;7.50;5.47;;;;;;;;;;4973833;28;20401;-65
2022/09/21 01:49:09;;;;;;;6.45;5.45;;;;;;;;;;4973428;28;20509;-65
2022/09/21 01:51:37;;;;;;;6.63;5.07;;;;;;;;;;4973441;28;20524;-65
2022/09/21 01:54:11;;;;;;;5.78;4.97;;;;;;;;;;4973427;28;20058;-66
2022/09/21 01:56:41;;;;;;;6.60;5.20;;;;;;;;;;4971798;28;20050;-65
2022/09/21 01:59:26;;;;;;;5.53;5.03;;;;;;;;;;4973024;28;20051;-65
2022/09/21 02:01:55;;;;;;;5.53;5.03;;;;;;;;;;4973388;28;20051;-65
2022/09/21 02:04:22;;;;;;;6.93;5.75;;;;;;;;;;4973491;28;20054;-65
2022/09/21 02:06:49;;;;;;;6.60;5.40;;;;;;;;;;4973261;28;20059;-64
2022/09/21 02:09:16;;;;;;;5.80;4.97;;;;;;;;;;4973164;28;20058;-65
2022/09/21 02:11:43;;;;;;;7.55;5.70;;;;;;;;;;4973297;28;20054;-65
2022/09/21 02:14:21;;;;;;;6.60;5.93;;;;;;;;;;4973886;28;20053;-65
2022/09/21 02:16:59;;;;;;;5.80;5.20;;;;;;;;;;4973329;28;20288;-65
2022/09/21 02:19:25;;;;;;;6.30;5.53;;;;;;;;;;4973013;28;20043;-65
2022/09/21 02:22:02;;;;;;;8.18;5.97;;;;;;;;;;4973228;28;20457;-65
2022/09/21 02:24:34;;;;;;;6.90;5.60;;;;;;;;;;4973225;28;20046;-65
2022/09/21 02:27:14;;;;;;;5.93;5.35;;;;;;;;;;4973146;28;20065;-64
2022/09/21 02:29:49;;;;;;;6.32;5.30;;;;;;;;;;4972869;28;20055;-64
2022/09/21 02:32:22;;;;;;;6.72;5.28;;;;;;;;;;4973084;28;20054;-64
2022/09/21 02:34:52;;;;;;;6.32;5.72;;;;;;;;;;4972852;28;20507;-64
2022/09/21 02:37:18;;;;;;;6.82;5.55;;;;;;;;;;4972751;28;20051;-64
2022/09/21 02:39:54;;;;;;;6.10;5.50;;;;;;;;;;4972994;28;20057;-64
2022/09/21 02:42:28;;;;;;;7.93;5.50;;;;;;;;;;4973148;28;20057;-65
2022/09/21 02:44:57;;;;;;;6.15;5.45;;;;;;;;;;4975551;28;20563;-65
2022/09/21 02:47:28;;;;;;;6.10;5.50;;;;;;;;;;4976946;28;20050;-65
2022/09/21 02:49:57;;;;;;;6.93;5.82;;;;;;;;;;4976852;28;20043;-65
2022/09/21 02:52:23;;;;;;;5.50;4.82;;;;;;;;;;4976729;28;20414;-65
2022/09/21 02:54:51;;;;;;;6.05;5.45;;;;;;;;;;4976564;28;20542;-65
2022/09/21 02:57:19;;;;;;;6.57;5.72;;;;;;;;;;4976798;28;20415;-65
2022/09/21 02:59:45;;;;;;;;;;;;;;;;;;4977020;28;20445;-65
2022/09/21 03:02:11;;;;;;;7.07;5.93;;;;;;;;;;4976685;28;19948;-65
2022/09/21 03:04:40;;;;;;;6.57;5.60;;;;;;;;;;4976432;28;20455;-65
2022/09/21 03:07:07;;;;;;;6.82;5.70;;;;;;;;;;4976338;28;20045;-66
2022/09/21 03:09:33;;;;;;;5.87;5.23;;;;;;;;;;4976707;28;20402;-66
2022/09/21 03:12:00;;;;;;;8.80;4.88;;;;;;;;;;4976516;28;20051;-65
2022/09/21 03:14:26;;;;;;;5.35;4.82;;;;;;;;;;4976571;28;20396;-65
2022/09/21 03:16:53;;;;;;;6.15;5.47;;;;;;;;;;4976204;28;20055;-65
2022/09/21 03:19:19;;;;;;;5.68;4.82;;;;;;;;;;4976229;28;20051;-65
2022/09/21 03:21:46;;;;;;;5.88;5.28;;;;;;;;;;4976144;28;20047;-65
2022/09/21 03:24:12;;;;;;;5.65;5.07;;;;;;;;;;4976066;28;20047;-65
2022/09/21 03:26:38;;;;;;;5.40;4.63;;;;;;;;;;4976293;28;20043;-65
2022/09/21 03:29:05;;;;;;;5.30;4.80;;;;;;;;;;4975966;28;20058;-67
2022/09/21 03:31:31;;;;;;;5.47;4.72;;;;;;;;;;4975984;28;20423;-65
2022/09/21 03:33:58;;;;;;;6.32;5.38;;;;;;;;;;4975948;28;20046;-64
2022/09/21 03:36:24;;;;;;;8.30;5.25;;;;;;;;;;4975895;28;20055;-65
2022/09/21 03:38:51;;;;;;;6.65;5.25;;;;;;;;;;4975694;28;20051;-66
2022/09/21 03:41:17;;;;;;;5.93;5.10;;;;;;;;;;4975893;28;20126;-66
2022/09/21 03:43:44;;;;;;;5.30;4.80;;;;;;;;;;4975958;28;20062;-66
2022/09/21 03:46:10;;;;;;;5.95;4.82;;;;;;;;;;4975842;28;20057;-66
2022/09/21 03:48:38;;;;;;;5.70;5.13;;;;;;;;;;4975678;28;20525;-65
2022/09/21 03:51:04;;;;;;;5.35;4.78;;;;;;;;;;4975657;28;20051;-65
2022/09/21 03:53:30;;;;;;;5.68;5.13;;;;;;;;;;4975873;28;20061;-66
2022/09/21 03:55:57;;;;;;;5.50;4.93;;;;;;;;;;4974414;28;20058;-65
2022/09/21 03:58:23;;;;;;;6.07;5.25;;;;;;;;;;4975645;28;20054;-65
2022/09/21 04:00:50;;;;;;;7.45;5.20;;;;;;;;;;4975600;28;20047;-65
2022/09/21 04:03:16;;;;;;;6.55;5.07;;;;;;;;;;4975450;28;20055;-66
2022/09/21 04:05:42;;;;;;;5.68;5.10;;;;;;;;;;4975618;28;20050;-65
2022/09/21 04:08:09;;;;;;;6.25;5.30;;;;;;;;;;4975084;28;20067;-65
2022/09/21 04:10:35;;;;;;;6.82;5.40;;;;;;;;;;4975557;28;20054;-65
2022/09/21 04:13:03;;;;;;;6.80;5.18;;;;;;;;;;4975404;28;20070;-65
2022/09/21 04:15:30;;;;;;;5.32;4.72;;;;;;;;;;4975441;28;20145;-65
2022/09/21 04:17:56;;;;;;;6.60;5.47;;;;;;;;;;4975172;28;20054;-65
2022/09/21 04:20:23;;;;;;;6.28;5.68;;;;;;;;;;4975263;28;20047;-65
2022/09/21 04:22:50;;;;;;;9.95;8.48;;;;;;;;;;4975259;28;20051;-65
2022/09/21 04:25:16;;;;;;;11.90;9.32;;;;;;;;;;4974954;28;20079;-65
2022/09/21 04:27:43;;;;;;;10.30;8.43;;;;;;;;;;4975253;28;20061;-65
2022/09/21 04:30:10;;;;;;;8.80;7.43;;;;;;;;;;4975223;28;20051;-65
2022/09/21 04:32:37;;;;;;;7.82;6.97;;;;;;;;;;4974921;28;20055;-65
2022/09/21 04:35:03;;;;;;;7.45;6.03;;;;;;;;;;4975044;28;20059;-65
2022/09/21 04:37:30;;;;;;;7.43;5.95;;;;;;;;;;4974742;28;20505;-65
2022/09/21 04:39:56;;;;;;;6.25;5.65;;;;;;;;;;4974698;28;20495;-64
2022/09/21 04:42:23;;;;;;;6.63;5.88;;;;;;;;;;4974981;28;20050;-65
2022/09/21 04:44:50;;;;;;;6.93;6.32;;;;;;;;;;4974976;28;20055;-65
2022/09/21 04:47:16;;;;;;;7.28;6.57;;;;;;;;;;4974561;28;20131;-64
2022/09/21 04:49:43;;;;;;;6.80;6.10;;;;;;;;;;4974837;28;20708;-65
2022/09/21 04:52:09;;;;;;;8.27;7.03;;;;;;;;;;4974518;28;20494;-65
2022/09/21 04:54:38;;;;;;;7.75;6.28;;;;;;;;;;4974435;28;20548;-64
2022/09/21 04:57:05;;;;;;;7.72;6.70;;;;;;;;;;4974465;28;20066;-65
2022/09/21 04:59:31;;;;;;;7.90;6.60;;;;;;;;;;4974393;28;20058;-65
2022/09/21 05:01:57;;;;;;;8.50;6.13;;;;;;;;;;4974586;28;20050;-65
2022/09/21 05:04:24;;;;;;;7.53;6.57;;;;;;;;;;4974532;28;20058;-65
2022/09/21 05:06:50;;;;;;;7.00;5.97;;;;;;;;;;4973945;28;20047;-66
2022/09/21 05:12:01;;;;;;;7.60;6.15;;;;;;;;;;4974170;28;20050;-65
2022/09/21 05:14:28;;;;;;;7.78;5.63;;;;;;;;;;4974434;28;20058;-65
2022/09/21 05:16:54;;;;;;;7.13;6.35;;;;;;;;;;4974508;28;20059;-65
2022/09/21 05:19:21;;;;;;;6.88;6.18;;;;;;;;;;4974235;28;20042;-64
2022/09/21 05:21:48;;;;;;;9.30;6.28;;;;;;;;;;4973893;28;20513;-64
2022/09/21 05:24:14;;;;;;;6.57;5.82;;;;;;;;;;4974036;28;20055;-65
2022/09/21 05:26:40;;;;;;;7.30;5.38;;;;;;;;;;4973960;28;20057;-64
2022/09/21 05:29:07;;;;;;;7.10;5.68;;;;;;;;;;4974054;28;20050;-64
2022/09/21 05:31:36;;;;;;;8.63;5.60;;;;;;;;;;4974160;28;20061;-65
2022/09/21 05:34:02;;;;;;;8.57;6.20;;;;;;;;;;4974010;28;20098;-64
2022/09/21 05:36:55;;;;;;;7.15;6.40;;;;;;;;;;4974034;28;20046;-65
2022/09/21 05:39:22;;;;;;;8.43;6.15;;;;;;;;;;4951490;28;20053;-64
2022/09/21 05:41:48;;;;;;;8.82;6.95;;;;;;;;;;4973839;28;20406;-64
2022/09/21 05:44:15;;;;;;;11.63;7.05;;;;;;;;;;4973778;28;20046;-65
2022/09/21 05:46:47;;;;;;;9.23;6.97;;;;;;;;;;4959809;28;20050;-65
2022/09/21 05:49:20;;;;;;;8.98;7.13;;;;;;;;;;4973631;28;20130;-65
2022/09/21 05:51:53;;;;;;;11.38;8.18;;;;;;;;;;4973680;28;20055;-64
2022/09/21 05:54:19;;;;;;;11.40;8.45;;;;;;;;;;4973691;28;20057;-64
2022/09/21 05:56:54;;;;;;;10.25;8.43;;;;;;;;;;4973511;28;20042;-64
2022/09/21 05:59:20;;;;;;;9.90;8.52;;;;;;;;;;4973337;28;20047;-64
2022/09/21 06:02:05;;;;;;;9.80;7.45;;;;;;;;;;4970695;28;20406;-64
2022/09/21 06:04:32;;;;;;;12.52;8.30;;;;;;;;;;4972727;28;20450;-65
2022/09/21 06:06:58;;;;;;;9.60;7.25;;;;;;;;;;4972659;28;20042;-64
2022/09/21 06:09:25;;;;;;;9.90;6.85;;;;;;;;;;4972712;28;20060;-65
2022/09/21 06:11:52;;;;;;;9.93;7.40;;;;;;;;;;4972357;28;20053;-65
2022/09/21 06:14:23;;;;;;;9.07;6.80;;;;;;;;;;4972907;28;20048;-64
2022/09/21 06:16:50;;;;;;;9.88;6.60;;;;;;;;;;4972696;28;20055;-65
2022/09/21 06:19:16;;;;;;;8.13;7.07;;;;;;;;;;4971700;28;20051;-64
2022/09/21 06:21:43;;;;;;;10.23;6.85;;;;;;;;;;4972890;28;20304;-65
2022/09/21 06:24:10;;;;;;;7.28;6.30;;;;;;;;;;4972928;28;20082;-65
2022/09/21 06:26:37;;;;;;;9.63;6.63;;;;;;;;;;4973056;28;20058;-65
2022/09/21 06:29:03;;;;;;;9.45;6.63;;;;;;;;;;4973221;28;20051;-64
2022/09/21 06:31:30;;;;;;;8.95;7.18;;;;;;;;;;4972824;28;20055;-64
2022/09/21 06:33:56;;;;;;;8.52;6.55;;;;;;;;;;4972865;28;20274;-64
2022/09/21 06:36:23;;;;;;;8.82;6.47;;;;;;;;;;4973122;28;20062;-64
2022/09/21 06:38:49;;;;;;;10.30;7.18;;;;;;;;;;4969784;28;20063;-65
2022/09/21 06:41:15;;;;;;;13.05;8.93;;;;;;;;;;4972382;28;20054;-65
2022/09/21 06:43:46;;;;;;;11.30;8.10;;;;;;;;;;4972414;28;20074;-66
2022/09/21 06:46:12;;;;;;;16.48;9.70;;;;;;;;;;4972016;28;20051;-66
2022/09/21 06:48:39;;;;;;;12.95;9.50;;;;;;;;;;4972727;28;20055;-66
2022/09/21 06:51:05;;;;;;;12.50;9.52;;;;;;;;;;4972772;28;20066;-65
2022/09/21 06:53:32;;;;;;;13.75;10.13;;;;;;;;;;4972471;28;20414;-65
2022/09/21 06:56:06;;;;;;;11.53;9.70;;;;;;;;;;4971705;28;20054;-65
2022/09/21 06:58:33;;;;;;;16.15;10.43;;;;;;;;;;4972656;28;20295;-65
2022/09/21 07:01:04;;;;;;;14.35;10.57;;;;;;;;;;4972473;28;20097;-65
2022/09/21 07:03:30;;;;;;;11.85;9.23;;;;;;;;;;4972777;28;20053;-65
2022/09/21 07:05:57;;;;;;;13.82;9.95;;;;;;;;;;4972581;28;20495;-65
2022/09/21 07:08:23;;;;;;;12.60;9.65;;;;;;;;;;4972382;28;20059;-65
2022/09/21 07:11:10;;;;;;;11.32;9.52;;;;;;;;;;4972074;28;20046;-65
2022/09/21 07:13:37;;;;;;;12.93;9.55;;;;;;;;;;4972727;28;20055;-65
2022/09/21 07:16:08;;;;;;;12.57;10.07;;;;;;;;;;4972527;28;20557;-65
2022/09/21 07:18:35;;;;;;;12.40;9.38;;;;;;;;;;4972409;28;20057;-65
2022/09/21 07:21:09;;;;;;;10.18;8.75;;;;;;;;;;4972533;28;20061;-65
2022/09/21 07:23:36;;;;;;;10.23;9.15;;;;;;;;;;4972636;28;20047;-65
2022/09/21 07:26:10;;;;;;;11.60;8.73;;;;;;;;;;4972755;28;20051;-65
2022/09/21 07:28:36;;;;;;;11.27;9.02;;;;;;;;;;4972776;28;20061;-65
2022/09/21 07:31:07;;;;;;;10.45;8.90;;;;;;;;;;4976072;28;20043;-65
2022/09/21 07:33:34;;;;;;;10.23;9.05;;;;;;;;;;4976151;28;20497;-65
2022/09/21 07:36:05;;;;;;;12.63;9.45;;;;;;;;;;4976311;28;20451;-65
2022/09/21 07:38:34;;;;;;;11.00;8.82;;;;;;;;;;4976364;28;20046;-65
2022/09/21 07:41:02;;;;;;;13.00;10.32;;;;;;;;;;4976072;28;20422;-65
2022/09/21 07:43:28;;;;;;;;;;;;;;;;;;4976431;28;20055;-65
2022/09/21 07:45:54;;;;;;;11.10;9.52;;;;;;;;;;4975977;28;19926;-65
2022/09/21 07:48:21;;;;;;;10.90;9.65;;;;;;;;;;4975703;28;20101;-65
2022/09/21 07:50:48;;;;;;;10.52;8.80;;;;;;;;;;4975644;28;20059;-65
2022/09/21 07:53:17;;;;;;;10.57;9.57;;;;;;;;;;4975653;28;20614;-65
2022/09/21 07:55:43;;;;;;;10.60;8.70;;;;;;;;;;4975497;28;20058;-65
2022/09/21 08:00:55;;;;;;;11.27;9.07;;;;;;;;;;4975359;28;20065;-65
2022/09/21 08:03:21;;;;;;;10.00;8.90;;;;;;;;;;4975391;28;20089;-65
2022/09/21 08:05:48;;;;;;;14.07;8.88;;;;;;;;;;4975386;28;20529;-65
2022/09/21 08:08:15;;;;;;;9.90;8.63;;;;;;;;;;4975112;28;20498;-65
2022/09/21 08:10:43;;;;;;;9.70;8.43;;;;;;;;;;4975487;28;20388;-65
2022/09/21 08:13:09;;;;;;;;;;;;;;;;;;4975669;28;20061;-65
2022/09/21 08:15:35;;;;;;;9.70;8.80;;;;;;;;;;4975286;28;19938;-65
2022/09/21 08:18:15;;;;;;;9.48;8.48;;;;;;;;;;4975504;28;20058;-66
2022/09/21 08:20:41;;;;;;;9.40;7.77;;;;;;;;;;4975389;28;20054;-65
2022/09/21 08:23:08;;;;;;;9.00;7.90;;;;;;;;;;4975489;28;20055;-65
2022/09/21 08:25:35;;;;;;;9.30;7.72;;;;;;;;;;4975139;28;20284;-65
2022/09/21 08:28:01;;;;;;;8.85;8.05;;;;;;;;;;4975026;28;20521;-65
2022/09/21 08:30:34;;;;;;;8.60;7.47;;;;;;;;;;4975167;28;20060;-65
2022/09/21 08:33:00;;;;;;;8.48;7.43;;;;;;;;;;4974924;28;20057;-65
2022/09/21 08:35:27;;;;;;;7.65;6.38;;;;;;;;;;4975144;28;20426;-65
2022/09/21 08:37:53;;;;;;;11.07;7.65;;;;;;;;;;4974844;28;20418;-65
2022/09/21 08:40:20;;;;;;;9.25;7.63;;;;;;;;;;4975034;28;20046;-65
2022/09/21 08:43:06;;;;;;;7.93;7.13;;;;;;;;;;4974554;28;20046;-65
2022/09/21 08:45:33;;;;;;;;;;;;;;;;;;4974896;28;20384;-66
2022/09/21 08:48:02;;;;;;;10.75;7.05;;;;;;;;;;4974806;28;19932;-65
2022/09/21 08:50:41;;;;;;;9.35;7.13;;;;;;;;;;4974680;28;20061;-65
2022/09/21 08:53:40;;;;;;;9.82;6.70;;;;;;;;;;4974629;28;20062;-65
2022/09/21 08:56:10;;;;;;;6.82;6.22;;;;;;;;;;4946823;28;20049;-65
2022/09/21 08:58:37;;;;;;;7.97;6.07;;;;;;;;;;4974657;28;20050;-66
2022/09/21 09:01:18;;;;;;;5.50;5.03;;;;;;;;;;4974132;28;20495;-66
2022/09/21 09:04:03;;;;;;;7.40;5.40;;;;;;;;;;4973023;28;20073;-65
2022/09/21 09:06:31;;;;;;;;;;;;;;;;;;4974964;28;20047;-66
2022/09/21 09:08:57;;;;;;;;;;;;;;;;;;4974610;28;19926;-65
2022/09/21 09:11:35;;;;;;;5.43;3.97;;;;;;;;;;4974228;28;20301;-65
2022/09/21 09:14:02;;;;;;;4.78;3.80;;;;;;;;;;4974437;28;20051;-66
2022/09/21 09:16:43;;;;;;;4.95;2.60;;;;;;;;;;4974393;28;20053;-65
2022/09/21 09:19:19;;;;;;;2.90;2.05;;;;;;;;;;4974019;28;20546;-66
2022/09/21 09:21:45;;;;;;;1.33;1.23;;;;;;;;;;4973997;28;20490;-66
2022/09/21 09:24:15;;;;;;;1.25;1.25;;;;;;;;;;4974009;28;20047;-66
2022/09/21 09:26:44;;;;;;;1.58;1.23;;;;;;;;;;4974161;28;20402;-66
2022/09/21 09:29:43;;;;;;;1.88;1.23;;;;;;;;;;4974078;28;20051;-66
2022/09/21 09:32:11;;;;;;;2.05;1.00;;;;;;;;;;4945212;28;20426;-66
2022/09/21 09:34:41;;;;;;;1.45;1.17;;;;;;;;;;4973864;28;20398;-66
2022/09/21 09:37:11;;;;;;;2.03;1.20;;;;;;;;;;4973574;28;20054;-66
2022/09/21 09:39:40;;;;;;;1.38;1.00;;;;;;;;;;4973888;28;20054;-66
2022/09/21 09:42:06;;;;;;;0.80;0.80;;;;;;;;;;4973629;28;20832;-66
2022/09/21 09:44:44;;;;;;;0.90;0.90;;;;;;;;;;4973763;28;20042;-66
2022/09/21 09:47:11;;;;;;;1.20;1.10;;;;;;;;;;4973774;28;20066;-66
2022/09/21 09:49:47;;;;;;;1.35;1.25;;;;;;;;;;4973487;28;20444;-66
2022/09/21 09:52:15;;;;;;;1.88;1.13;;;;;;;;;;4973756;28;20407;-66
2022/09/21 09:54:42;;;;;;;1.52;1.33;;;;;;;;;;4973372;28;20051;-66
2022/09/21 09:57:08;;;;;;;;;;;;;;;;;;4974133;28;20059;-66
2022/09/21 09:59:34;;;;;;;;;;;;;;;;;;4973649;28;19922;-66
2022/09/21 10:02:01;;;;;;;;;;;;;;;;;;4973722;28;19925;-66
2022/09/21 10:04:28;;;;;;;2.83;1.30;;;;;;;;;;4973228;28;19926;-66
2022/09/21 10:06:55;;;;;;;1.38;1.27;;;;;;;;;;4973171;28;20070;-66
2022/09/21 10:09:26;;;;;;;1.70;1.45;;;;;;;;;;4973080;28;20491;-66
2022/09/21 10:11:54;;;;;;;1.60;1.50;;;;;;;;;;4973402;28;20053;-66
2022/09/21 10:14:22;;;;;;;1.60;1.50;;;;;;;;;;4973157;28;20059;-66
2022/09/21 10:16:50;;;;;;;1.48;1.30;;;;;;;;;;4973285;28;20055;-66
2022/09/21 10:19:22;;;;;;;1.50;1.40;;;;;;;;;;4973137;28;20062;-66
2022/09/21 10:21:52;;;;;;;1.38;1.27;;;;;;;;;;4972996;28;20209;-66
2022/09/21 10:24:28;;;;;;;1.52;1.42;;;;;;;;;;4973313;28;20126;-66
2022/09/21 10:27:01;;;;;;;1.30;1.20;;;;;;;;;;4972943;28;20473;-65
2022/09/21 10:29:31;;;;;;;2.42;1.23;;;;;;;;;;4973024;28;20452;-66
2022/09/21 10:32:02;;;;;;;1.65;1.55;;;;;;;;;;4973061;28;20142;-73
2022/09/21 10:34:29;;;;;;;1.40;1.30;;;;;;;;;;4973176;28;20069;-65
2022/09/21 10:36:57;;;;;;;2.13;1.20;;;;;;;;;;4973086;28;20065;-64
2022/09/21 10:39:30;;;;;;;1.35;1.25;;;;;;;;;;4973023;28;20042;-66
2022/09/21 10:41:56;;;;;;;1.38;1.30;;;;;;;;;;4973144;28;20079;-65
2022/09/21 10:44:25;;;;;;;1.60;1.50;;;;;;;;;;4972954;28;20065;-65
2022/09/21 10:46:51;;;;;;;1.17;0.90;;;;;;;;;;4972896;28;20047;-65
2022/09/21 10:49:23;;;;;;;2.65;1.40;;;;;;;;;;4972950;28;20051;-65
2022/09/21 10:51:50;;;;;;;1.70;1.55;;;;;;;;;;4973039;28;20062;-65
2022/09/21 10:54:21;;;;;;;1.30;1.20;;;;;;;;;;4972608;28;20053;-65
2022/09/21 10:56:52;;;;;;;1.27;1.17;;;;;;;;;;4973004;28;20051;-65
2022/09/21 10:59:24;;;;;;;1.98;1.50;;;;;;;;;;4972807;28;20059;-65
2022/09/21 11:01:52;;;;;;;1.58;1.48;;;;;;;;;;4972961;28;20058;-65
2022/09/21 11:04:23;;;;;;;1.52;1.20;;;;;;;;;;4972774;28;20051;-65
2022/09/21 11:06:57;;;;;;;4.28;1.20;;;;;;;;;;4976458;28;20062;-65
2022/09/21 11:09:27;;;;;;;1.40;1.30;;;;;;;;;;4976426;28;20062;-65
2022/09/21 11:12:12;;;;;;;1.70;1.20;;;;;;;;;;4976640;28;20042;-65
2022/09/21 11:14:38;;;;;;;1.23;1.20;;;;;;;;;;4976736;28;20065;-65
2022/09/21 11:17:10;;;;;;;1.20;1.10;;;;;;;;;;4976302;28;20066;-65
2022/09/21 11:19:37;;;;;;;0.95;0.95;;;;;;;;;;4976244;28;20054;-65
2022/09/21 11:22:15;;;;;;;2.80;1.20;;;;;;;;;;4976568;28;20054;-65
2022/09/21 11:24:57;;;;;;;2.38;1.50;;;;;;;;;;4976478;28;20057;-65
2022/09/21 11:27:35;;;;;;;3.60;1.10;;;;;;;;;;4976051;28;20051;-65
2022/09/21 11:30:15;;;;;;;1.33;1.23;;;;;;;;;;4976116;28;20085;-65
2022/09/21 11:32:41;;;;;;;2.05;1.23;;;;;;;;;;4976137;28;20050;-65
2022/09/21 11:35:07;;;;;;;;;;;;;;;;;;4976546;28;20046;-65
2022/09/21 11:37:54;;;;;;;1.17;1.05;;;;;;;;;;4976199;28;19922;-65
2022/09/21 11:40:39;;;;;;;0.85;0.85;;;;;;;;;;4975884;28;20054;-65
2022/09/21 11:43:09;;;;;;;0.90;0.90;;;;;;;;;;4975920;28;20047;-65
2022/09/21 11:45:35;;;;;;;1.15;0.80;;;;;;;;;;4976079;28;20055;-65
2022/09/21 11:48:01;;;;;;;;;;;;;;;;;;4976488;28;20054;-65
2022/09/21 11:50:31;;;;;;;1.70;0.90;;;;;;;;;;4975996;28;19929;-65
2022/09/21 11:53:13;;;;;;;1.00;0.90;;;;;;;;;;4975642;28;20495;-65
2022/09/21 11:55:43;;;;;;;2.53;1.00;;;;;;;;;;4975980;28;20063;-65
2022/09/21 11:58:17;;;;;;;0.98;0.90;;;;;;;;;;4975897;28;20058;-65
2022/09/21 12:00:47;;;;;;;1.00;0.88;;;;;;;;;;4975321;28;20055;-65
2022/09/21 12:03:22;;;;;;;0.80;0.80;;;;;;;;;;4974419;28;20043;-65
2022/09/21 12:06:00;;;;;;;0.80;0.80;;;;;;;;;;4975846;28;20125;-65
2022/09/21 12:08:33;;;;;;;0.85;0.85;;;;;;;;;;4975329;28;20475;-65
2022/09/21 12:11:02;;;;;;;1.75;0.90;;;;;;;;;;4975422;28;20146;-65
2022/09/21 12:13:44;;;;;;;1.00;1.00;;;;;;;;;;4975224;28;20050;-65
2022/09/21 12:16:10;;;;;;;1.10;1.10;;;;;;;;;;4974638;28;20047;-65
2022/09/21 12:18:47;;;;;;;1.80;0.75;;;;;;;;;;4975017;28;20050;-65
2022/09/21 12:21:18;;;;;;;2.58;1.40;;;;;;;;;;4975400;28;20490;-65
2022/09/21 12:23:47;;;;;;;2.47;1.20;;;;;;;;;;4975351;28;20042;-65
2022/09/21 12:26:17;;;;;;;1.45;1.35;;;;;;;;;;4975079;28;20517;-65
2022/09/21 12:28:46;;;;;;;2.08;1.38;;;;;;;;;;4975273;28;20047;-65
2022/09/21 12:31:18;;;;;;;7.75;2.33;;;;;;;;;;4975032;28;20599;-65
2022/09/21 12:34:03;;;;;;;1.40;1.30;;;;;;;;;;4974976;28;20050;-65
2022/09/21 12:36:34;;;;;;;1.13;1.02;;;;;;;;;;4975206;28;20054;-65
2022/09/21 12:39:06;;;;;;;1.20;1.20;;;;;;;;;;4975105;28;20057;-65
2022/09/21 12:41:43;;;;;;;1.67;1.45;;;;;;;;;;4974880;28;20042;-65
2022/09/21 12:44:27;;;;;;;1.27;1.20;;;;;;;;;;4975037;28;20050;-65
2022/09/21 12:47:08;;;;;;;1.05;1.05;;;;;;;;;;4975805;28;20073;-65
2022/09/21 12:49:43;;;;;;;12.98;3.50;;;;;;;;;;4974805;28;20047;-65
2022/09/21 12:52:12;;;;;;;1.38;1.27;;;;;;;;;;4974678;28;20055;-65
2022/09/21 12:54:38;;;;;;;1.38;1.27;;;;;;;;;;4974575;28;20057;-65
2022/09/21 12:57:09;;;;;;;1.70;1.60;;;;;;;;;;4974559;28;20054;-65
2022/09/21 13:00:10;;;;;;;1.75;1.65;;;;;;;;;;4974613;28;20062;-65
2022/09/21 13:02:59;;;;;;;2.13;1.40;;;;;;;;;;4974669;28;20057;-65
2022/09/21 13:05:26;;;;;;;1.40;1.30;;;;;;;;;;4955654;28;20039;-65
2022/09/21 13:08:02;;;;;;;1.98;1.75;;;;;;;;;;4974335;28;20065;-65
2022/09/21 13:10:30;;;;;;;1.30;0.98;;;;;;;;;;4974308;28;20042;-65
2022/09/21 13:13:01;;;;;;;1.92;1.27;;;;;;;;;;4974316;28;20085;-65
2022/09/21 13:15:29;;;;;;;2.63;1.45;;;;;;;;;;4974244;28;20105;-65
2022/09/21 13:18:00;;;;;;;1.50;1.40;;;;;;;;;;4974088;28;20053;-65
2022/09/21 13:20:32;;;;;;;6.57;2.35;;;;;;;;;;4974216;28;20057;-65
2022/09/21 13:23:00;;;;;;;1.52;1.42;;;;;;;;;;4974089;28;20525;-65
2022/09/21 13:25:29;;;;;;;1.55;1.42;;;;;;;;;;4973849;28;20046;-65
2022/09/21 13:27:59;;;;;;;1.90;1.40;;;;;;;;;;4973914;28;20057;-65
2022/09/21 13:30:34;;;;;;;1.50;1.40;;;;;;;;;;4973862;28;20055;-65
2022/09/21 13:33:02;;;;;;;1.95;1.15;;;;;;;;;;4974092;28;20069;-65
2022/09/21 13:35:47;;;;;;;4.45;1.60;;;;;;;;;;4974041;28;20059;-65
2022/09/21 13:38:36;;;;;;;1.60;1.50;;;;;;;;;;4973745;28;20065;-65
2022/09/21 13:41:17;;;;;;;1.20;1.10;;;;;;;;;;4973812;28;20134;-65
2022/09/21 13:43:56;;;;;;;1.70;1.30;;;;;;;;;;4973665;28;20486;-65
2022/09/21 13:46:35;;;;;;;1.20;1.10;;;;;;;;;;4973998;28;20062;-65
2022/09/21 13:49:04;;;;;;;1.40;1.30;;;;;;;;;;4973473;28;20058;-65
2022/09/21 13:51:34;;;;;;;1.52;1.42;;;;;;;;;;4973525;28;20058;-65
2022/09/21 13:54:02;;;;;;;1.50;1.40;;;;;;;;;;4973413;28;20618;-65
2022/09/21 13:56:32;;;;;;;1.63;1.52;;;;;;;;;;4973673;28;20129;-65
2022/09/21 13:58:58;;;;;;;1.52;1.42;;;;;;;;;;4973614;28;20051;-65
2022/09/21 14:01:31;;;;;;;1.70;1.60;;;;;;;;;;4973154;28;20054;-65
2022/09/21 14:04:27;;;;;;;2.22;1.33;;;;;;;;;;4973536;28;20054;-65
2022/09/21 14:06:54;;;;;;;1.33;1.20;;;;;;;;;;4973471;28;20047;-65
2022/09/21 14:09:28;;;;;;;1.42;1.33;;;;;;;;;;4973142;28;20065;-65
2022/09/21 14:12:00;;;;;;;1.75;1.52;;;;;;;;;;4973452;28;20066;-65
2022/09/21 14:14:37;;;;;;;1.67;1.55;;;;;;;;;;4973469;28;20133;-65
2022/09/21 14:17:03;;;;;;;;;;;;;;;;;;4973505;28;20055;-65
2022/09/21 14:19:32;;;;;;;1.92;1.73;;;;;;;;;;4973374;28;19933;-65
2022/09/21 14:22:02;;;;;;;2.05;1.90;;;;;;;;;;4973247;28;20054;-65
2022/09/21 14:24:37;;;;;;;2.35;1.70;;;;;;;;;;4973285;28;20049;-65
2022/09/21 14:27:24;;;;;;;1.80;1.70;;;;;;;;;;4973167;28;20407;-65
2022/09/21 14:29:54;;;;;;;1.75;1.65;;;;;;;;;;4972924;28;20125;-65
2022/09/21 14:32:25;;;;;;;1.92;1.77;;;;;;;;;;4973108;28;20054;-65
2022/09/21 14:35:00;;;;;;;2.17;2.00;;;;;;;;;;4973167;28;20050;-65
2022/09/21 14:37:29;;;;;;;2.22;1.77;;;;;;;;;;4973078;28;20414;-65
2022/09/21 14:39:56;;;;;;;2.45;1.80;;;;;;;;;;4972424;28;20051;-65
2022/09/21 14:42:26;;;;;;;2.75;2.08;;;;;;;;;;4972720;28;20502;-65
2022/09/21 14:44:54;;;;;;;2.10;2.00;;;;;;;;;;4973039;28;20055;-65
2022/09/21 14:47:30;;;;;;;1.90;1.80;;;;;;;;;;4972995;28;20050;-65
2022/09/21 14:50:26;;;;;;;2.05;1.50;;;;;;;;;;4972863;28;20050;-65
2022/09/21 14:53:26;;;;;;;2.13;2.03;;;;;;;;;;4953804;28;20050;-65
2022/09/21 14:56:08;;;;;;;2.15;2.05;;;;;;;;;;4936968;28;20051;-65
2022/09/21 14:58:50;;;;;;;2.75;2.05;;;;;;;;;;4973273;28;20061;-64
2022/09/21 15:01:25;;;;;;;2.00;1.80;;;;;;;;;;4972581;28;20061;-65
2022/09/21 15:04:09;;;;;;;2.13;1.92;;;;;;;;;;4972756;28;20043;-65
2022/09/21 15:12:46;;;;;;;2.30;2.08;;;;;;;;;;4972540;28;20046;-64
2022/09/21 15:15:21;;;;;;;4.65;2.28;;;;;;;;;;4972924;28;20051;-64